Time;durP1;ratioP1;P1;durP2;ratioP2;P2;SDS_P1;SDS_P2;PMS_P1;PMS_P2;Temp;Humidity;BMP_temperature;BMP_pressure;BME280_temperature;BME280_humidity;BME280_pressure;Samples;Min_cycle;Max_cycle;Signal;HPM_P1;HPM_P2
2023/04/06 00:02:17;;;;;;;;;;;;;;;;;;6269587;22;20336;-88
2023/04/06 00:04:43;;;;;;;;;;;;;;;;;;6270327;22;19922;-88
2023/04/06 00:07:08;;;;;;;;;;;;;;;;;;6294687;22;19922;-88
2023/04/06 00:09:34;;;;;;;;;;;;;;;;;;6269462;22;19919;-88
2023/04/06 00:12:01;;;;;;;;;;;;;;;;;;6267457;22;19938;-88
2023/04/06 00:14:26;;;;;;;;;;;;;;;;;;6271822;22;19977;-88
2023/04/06 00:16:52;;;;;;;;;;;;;;;;;;6269641;22;20259;-88
2023/04/06 00:19:18;;;;;;;;;;;;;;;;;;6296347;22;19923;-88
2023/04/06 00:21:45;;;;;;;;;;;;;;;;;;6294889;22;20253;-88
2023/04/06 00:24:14;;;;;;;;;;;;;;;;;;6271009;22;19918;-88
2023/04/06 00:26:40;;;;;;;;;;;;;;;;;;6273417;22;20282;-88
2023/04/06 00:29:06;;;;;;;;;;;;;;;;;;6269863;22;20016;-88
2023/04/06 00:31:32;;;;;;;;;;;;;;;;;;6271776;22;19923;-88
2023/04/06 00:33:58;;;;;;;;;;;;;;;;;;6296010;22;19969;-88
2023/04/06 00:36:25;;;;;;;;;;;;;;;;;;6272986;22;19993;-88
2023/04/06 00:38:51;;;;;;;;;;;;;;;;;;6293068;22;19997;-88
2023/04/06 00:41:17;;;;;;;;;;;;;;;;;;6270199;22;20347;-88
2023/04/06 00:43:43;;;;;;;;;;;;;;;;;;6294118;22;19918;-88
2023/04/06 00:46:08;;;;;;;;;;;;;;;;;;6266643;22;19945;-88
2023/04/06 00:48:34;;;;;;;;;;;;;;;;;;6293627;22;20324;-88
2023/04/06 00:51:00;;;;;;;;;;;;;;;;;;6265278;22;19940;-88
2023/04/06 00:53:26;;;;;;;;;;;;;;;;;;6270476;22;19927;-88
2023/04/06 00:55:52;;;;;;;;;;;;;;;;;;6266909;22;19933;-88
2023/04/06 00:58:18;;;;;;;;;;;;;;;;;;6292721;22;19923;-87
2023/04/06 01:00:44;;;;;;;;;;;;;;;;;;6269771;22;19915;-87
2023/04/06 01:03:10;;;;;;;;;;;;;;;;;;6266503;22;19919;-87
2023/04/06 01:05:40;;;;;;;;;;;;;;;;;;6269125;22;19922;-87
2023/04/06 01:08:06;;;;;;;;;;;;;;;;;;6265734;22;20866;-87
2023/04/06 01:10:32;;;;;;;;;;;;;;;;;;6270579;22;19919;-87
2023/04/06 01:12:58;;;;;;;;;;;;;;;;;;6267604;22;19918;-87
2023/04/06 01:15:24;;;;;;;;;;;;;;;;;;6295950;22;19923;-87
2023/04/06 01:17:50;;;;;;;;;;;;;;;;;;6265766;22;20331;-87
2023/04/06 01:20:16;;;;;;;;;;;;;;;;;;6268526;22;19919;-87
2023/04/06 01:22:42;;;;;;;;;;;;;;;;;;6268401;22;19934;-87
2023/04/06 01:25:08;;;;;;;;;;;;;;;;;;6268169;22;20242;-87
2023/04/06 01:27:34;;;;;;;;;;;;;;;;;;6270914;22;19997;-87
2023/04/06 01:30:00;;;;;;;;;;;;;;;;;;6265471;22;19968;-87
2023/04/06 01:32:26;;;;;;;;;;;;;;;;;;6296960;22;19919;-87
2023/04/06 01:34:52;;;;;;;;;;;;;;;;;;6293501;22;20297;-87
2023/04/06 01:37:18;;;;;;;;;;;;;;;;;;6270636;22;19918;-86
2023/04/06 01:39:44;;;;;;;;;;;;;;;;;;6268971;22;20423;-86
2023/04/06 01:42:10;;;;;;;;;;;;;;;;;;6265382;22;19957;-87
2023/04/06 01:44:36;;;;;;;;;;;;;;;;;;6296278;22;19923;-87
2023/04/06 01:47:02;;;;;;;;;;;;;;;;;;6266185;22;20355;-87
2023/04/06 01:49:28;;;;;;;;;;;;;;;;;;6270233;22;19919;-87
2023/04/06 01:51:54;;;;;;;;;;;;;;;;;;6267350;22;20367;-87
2023/04/06 01:54:20;;;;;;;;;;;;;;;;;;6296267;22;19921;-87
2023/04/06 01:56:46;;;;;;;;;;;;;;;;;;6269283;22;20014;-86
2023/04/06 01:59:12;;;;;;;;;;;;;;;;;;6267092;22;19923;-87
2023/04/06 02:01:38;;;;;;;;;;;;;;;;;;6294675;22;20402;-87
2023/04/06 02:04:04;;;;;;;;;;;;;;;;;;6264599;22;19949;-87
2023/04/06 02:06:31;;;;;;;;;;;;;;;;;;6267824;22;19954;-87
2023/04/06 02:08:57;;;;;;;;;;;;;;;;;;6262807;22;19919;-87
2023/04/06 02:11:23;;;;;;;;;;;;;;;;;;6293781;22;19923;-87
2023/04/06 02:13:48;;;;;;;;;;;;;;;;;;6292319;22;19968;-86
2023/04/06 02:16:15;;;;;;;;;;;;;;;;;;6292448;22;20243;-86
2023/04/06 02:18:41;;;;;;;;;;;;;;;;;;6269073;22;20397;-87
2023/04/06 02:21:07;;;;;;;;;;;;;;;;;;6292164;22;19954;-86
2023/04/06 02:23:33;;;;;;;;;;;;;;;;;;6267031;22;20325;-87
2023/04/06 02:25:59;;;;;;;;;;;;;;;;;;6265543;22;19922;-87
2023/04/06 02:28:25;;;;;;;;;;;;;;;;;;6267288;22;19953;-86
2023/04/06 02:30:51;;;;;;;;;;;;;;;;;;6264149;22;19918;-87
2023/04/06 02:33:17;;;;;;;;;;;;;;;;;;6295021;22;19923;-87
2023/04/06 02:35:43;;;;;;;;;;;;;;;;;;6270110;22;19915;-86
2023/04/06 02:38:09;;;;;;;;;;;;;;;;;;6291499;22;20340;-86
2023/04/06 02:40:35;;;;;;;;;;;;;;;;;;6294354;22;19919;-87
2023/04/06 02:43:01;;;;;;;;;;;;;;;;;;6291690;22;19919;-87
2023/04/06 02:45:27;;;;;;;;;;;;;;;;;;6293090;22;20032;-86
2023/04/06 02:47:53;;;;;;;;;;;;;;;;;;6264182;22;20027;-86
2023/04/06 02:50:19;;;;;;;;;;;;;;;;;;6293418;22;19922;-87
2023/04/06 02:52:45;;;;;;;;;;;;;;;;;;6294755;22;20332;-87
2023/04/06 02:55:11;;;;;;;;;;;;;;;;;;6267696;22;19925;-86
2023/04/06 02:57:37;;;;;;;;;;;;;;;;;;6293160;22;19918;-86
2023/04/06 03:00:03;;;;;;;;;;;;;;;;;;6265353;22;19919;-86
2023/04/06 03:02:29;;;;;;;;;;;;;;;;;;6294695;22;19915;-86
2023/04/06 03:04:55;;;;;;;;;;;;;;;;;;6266236;22;20616;-86
2023/04/06 03:07:21;;;;;;;;;;;;;;;;;;6295844;22;19922;-86
2023/04/06 03:09:47;;;;;;;;;;;;;;;;;;6291584;22;20017;-87
2023/04/06 03:12:13;;;;;;;;;;;;;;;;;;6296706;22;20324;-87
2023/04/06 03:14:39;;;;;;;;;;;;;;;;;;6267779;22;19919;-86
2023/04/06 03:17:05;;;;;;;;;;;;;;;;;;6265858;22;19919;-86
2023/04/06 03:19:31;;;;;;;;;;;;;;;;;;6296125;22;19915;-86
2023/04/06 03:21:57;;;;;;;;;;;;;;;;;;6268873;22;19919;-86
2023/04/06 03:24:23;;;;;;;;;;;;;;;;;;6268985;22;19915;-87
2023/04/06 03:26:49;;;;;;;;;;;;;;;;;;6265441;22;19925;-86
2023/04/06 03:29:15;;;;;;;;;;;;;;;;;;6296115;22;19926;-86
2023/04/06 03:31:41;;;;;;;;;;;;;;;;;;6267213;22;19930;-86
2023/04/06 03:34:07;;;;;;;;;;;;;;;;;;6264644;22;19918;-87
2023/04/06 03:36:33;;;;;;;;;;;;;;;;;;6293248;22;19918;-86
2023/04/06 03:38:59;;;;;;;;;;;;;;;;;;6291304;22;20247;-86
2023/04/06 03:41:26;;;;;;;;;;;;;;;;;;6268448;22;19993;-87
2023/04/06 03:43:52;;;;;;;;;;;;;;;;;;6290632;22;20016;-87
2023/04/06 03:46:18;;;;;;;;;;;;;;;;;;6267247;22;20339;-86
2023/04/06 03:48:44;;;;;;;;;;;;;;;;;;6295444;22;19950;-86
2023/04/06 03:51:09;;;;;;;;;;;;;;;;;;6292415;22;19969;-87
2023/04/06 03:53:37;;;;;;;;;;;;;;;;;;6267258;22;19961;-87
2023/04/06 03:56:02;;;;;;;;;;;;;;;;;;6266697;22;20621;-86
2023/04/06 03:58:29;;;;;;;;;;;;;;;;;;6268853;22;19961;-86
2023/04/06 04:00:55;;;;;;;;;;;;;;;;;;6292965;22;19922;-87
2023/04/06 04:03:23;;;;;;;;;;;;;;;;;;6265835;22;19915;-87
2023/04/06 04:05:49;;;;;;;;;;;;;;;;;;6266031;22;20059;-86
2023/04/06 04:08:15;;;;;;;;;;;;;;;;;;6267930;22;19915;-86
2023/04/06 04:10:41;;;;;;;;;;;;;;;;;;6271052;22;19915;-86
2023/04/06 04:13:07;;;;;;;;;;;;;;;;;;6267383;22;20137;-87
2023/04/06 04:15:33;;;;;;;;;;;;;;;;;;6294431;22;19923;-86
2023/04/06 04:17:59;;;;;;;;;;;;;;;;;;6267388;22;19918;-86
2023/04/06 04:20:25;;;;;;;;;;;;;;;;;;6270105;22;19968;-86
2023/04/06 04:22:51;;;;;;;;;;;;;;;;;;6266759;22;19993;-87
2023/04/06 04:25:17;;;;;;;;;;;;;;;;;;6296461;22;19915;-86
2023/04/06 04:27:43;;;;;;;;;;;;;;;;;;6269345;22;20336;-86
2023/04/06 04:30:09;;;;;;;;;;;;;;;;;;6268226;22;20243;-87
2023/04/06 04:32:35;;;;;;;;;;;;;;;;;;6295832;22;19934;-87
2023/04/06 04:35:01;;;;;;;;;;;;;;;;;;6291619;22;19930;-86
2023/04/06 04:37:27;;;;;;;;;;;;;;;;;;6295073;22;19950;-87
2023/04/06 04:39:53;;;;;;;;;;;;;;;;;;6267461;22;19918;-86
2023/04/06 04:42:19;;;;;;;;;;;;;;;;;;6293614;22;20304;-86
2023/04/06 04:44:45;;;;;;;;;;;;;;;;;;6268752;22;19919;-86
2023/04/06 04:47:11;;;;;;;;;;;;;;;;;;6292677;22;19919;-87
2023/04/06 04:49:36;;;;;;;;;;;;;;;;;;6270830;22;20262;-87
2023/04/06 04:52:02;;;;;;;;;;;;;;;;;;6268709;22;19989;-87
2023/04/06 04:54:28;;;;;;;;;;;;;;;;;;6296385;22;19926;-86
2023/04/06 04:56:54;;;;;;;;;;;;;;;;;;6266880;22;19929;-87
2023/04/06 04:59:20;;;;;;;;;;;;;;;;;;6266619;22;19954;-87
2023/04/06 05:01:46;;;;;;;;;;;;;;;;;;6292183;22;19919;-87
2023/04/06 05:04:12;;;;;;;;;;;;;;;;;;6292679;22;20320;-87
2023/04/06 05:06:38;;;;;;;;;;;;;;;;;;6293474;22;19968;-86
2023/04/06 05:09:04;;;;;;;;;;;;;;;;;;6267314;22;19915;-87
2023/04/06 05:11:30;;;;;;;;;;;;;;;;;;6267601;22;20307;-86
2023/04/06 05:13:56;;;;;;;;;;;;;;;;;;6292309;22;19919;-87
2023/04/06 05:16:22;;;;;;;;;;;;;;;;;;6265918;22;19976;-87
2023/04/06 05:18:48;;;;;;;;;;;;;;;;;;6265407;22;19923;-87
2023/04/06 05:21:14;;;;;;;;;;;;;;;;;;6292679;22;19919;-87
2023/04/06 05:23:40;;;;;;;;;;;;;;;;;;6292744;22;19930;-87
2023/04/06 05:26:06;;;;;;;;;;;;;;;;;;6290584;22;19919;-86
2023/04/06 05:28:32;;;;;;;;;;;;;;;;;;6267389;22;19926;-87
2023/04/06 05:30:58;;;;;;;;;;;;;;;;;;6262150;22;19930;-87
2023/04/06 05:33:24;;;;;;;;;;;;;;;;;;6293389;22;19934;-87
2023/04/06 05:35:50;;;;;;;;;;;;;;;;;;6290763;22;19919;-87
2023/04/06 05:38:16;;;;;;;;;;;;;;;;;;6265786;22;20350;-87
2023/04/06 05:40:42;;;;;;;;;;;;;;;;;;6268121;22;19918;-87
2023/04/06 05:43:08;;;;;;;;;;;;;;;;;;6263655;22;19923;-86
2023/04/06 05:45:34;;;;;;;;;;;;;;;;;;6267487;22;19991;-87
2023/04/06 05:48:00;;;;;;;;;;;;;;;;;;6264099;22;20447;-87
2023/04/06 05:50:26;;;;;;;;;;;;;;;;;;6290501;22;19919;-86
2023/04/06 05:52:52;;;;;;;;;;;;;;;;;;6290369;22;19922;-87
2023/04/06 05:55:18;;;;;;;;;;;;;;;;;;6295501;22;20259;-87
2023/04/06 05:57:44;;;;;;;;;;;;;;;;;;6267050;22;19915;-87
2023/04/06 06:00:10;;;;;;;;;;;;;;;;;;6264532;22;19918;-86
2023/04/06 06:02:36;;;;;;;;;;;;;;;;;;6291007;22;19919;-87
2023/04/06 06:05:02;;;;;;;;;;;;;;;;;;6264288;22;19919;-87
2023/04/06 06:07:28;;;;;;;;;;;;;;;;;;6267476;22;19925;-87
2023/04/06 06:09:54;;;;;;;;;;;;;;;;;;6264057;22;19919;-87
2023/04/06 06:12:20;;;;;;;;;;;;;;;;;;6267451;22;20304;-87
2023/04/06 06:14:46;;;;;;;;;;;;;;;;;;6291070;22;19965;-87
2023/04/06 06:17:12;;;;;;;;;;;;;;;;;;6265254;22;20034;-87
2023/04/06 06:19:38;;;;;;;;;;;;;;;;;;6266352;22;20363;-87
2023/04/06 06:22:04;;;;;;;;;;;;;;;;;;6266562;22;19954;-87
2023/04/06 06:24:31;;;;;;;;;;;;;;;;;;6268396;22;20411;-87
2023/04/06 06:26:57;;;;;;;;;;;;;;;;;;6289366;22;19919;-87
2023/04/06 06:29:23;;;;;;;;;;;;;;;;;;6292534;22;20282;-87
2023/04/06 06:31:49;;;;;;;;;;;;;;;;;;6264425;22;20336;-87
2023/04/06 06:34:15;;;;;;;;;;;;;;;;;;6292015;22;19991;-87
2023/04/06 06:36:41;;;;;;;;;;;;;;;;;;6268000;22;19925;-87
2023/04/06 06:39:07;;;;;;;;;;;;;;;;;;6264229;22;19919;-88
2023/04/06 06:41:33;;;;;;;;;;;;;;;;;;6268919;22;20043;-87
2023/04/06 06:43:59;;;;;;;;;;;;;;;;;;6266938;22;19956;-87
2023/04/06 06:46:25;;;;;;;;;;;;;;;;;;6268557;22;19923;-92
2023/04/06 06:48:51;;;;;;;;;;;;;;;;;;6288936;22;20256;-88
2023/04/06 06:51:17;;;;;;;;;;;;;;;;;;6292523;22;19920;-88
2023/04/06 06:53:43;;;;;;;;;;;;;;;;;;6295265;22;19919;-88
2023/04/06 06:56:11;;;;;;;;;;;;;;;;;;6265247;22;19926;-88
2023/04/06 06:58:37;;;;;;;;;;;;;;;;;;6265259;22;19968;-89
2023/04/06 07:01:04;;;;;;;;;;;;;;;;;;6261697;22;19915;-88
2023/04/06 07:03:30;;;;;;;;;;;;;;;;;;6268709;22;19964;-88
2023/04/06 07:11:45;;;;;;;;;;;;;;;;;;6145817;23;19962;-88
2023/04/06 07:14:47;;;;;;;;;;;;;;;;;;;;;
2023/04/06 07:18:00;;;;;;;;;;;;;;;;;;;;;
2023/04/06 07:35:59;;;;;;;;;;;;;;;;;;;;;
2023/04/06 07:42:04;;;;;;;;;;;;;;;;;;6177762;23;19920;-88
2023/04/06 07:50:56;;;;;;;;;;;;;;;;;;6231511;23;20519;-88
2023/04/06 08:16:08;;;;;;;;;;;;;;;;;;5989340;23;19926;-89
2023/04/06 08:18:34;;;;;;;;;;;;;;;;;;6135055;23;19999;-89
2023/04/06 08:21:00;;;;;;;;;;;;;;;;;;6204071;22;20320;-89
2023/04/06 08:23:26;;;;;;;;;;;;;;;;;;6294131;22;19926;-89
2023/04/06 08:25:54;;;;;;;;;;;;;;;;;;6291503;22;20005;-90
2023/04/06 08:28:20;;;;;;;;;;;;;;;;;;6292718;22;20020;-90
2023/04/06 08:30:46;;;;;;;;;;;;;;;;;;6295134;22;20263;-88
2023/04/06 08:33:12;;;;;;;;;;;;;;;;;;6267940;22;19926;-89
2023/04/06 08:35:38;;;;;;;;;;;;;;;;;;6293015;22;20368;-89
2023/04/06 08:38:04;;;;;;;;;;;;;;;;;;6292768;22;19964;-89
2023/04/06 08:40:30;;;;;;;;;;;;;;;;;;6267072;22;19918;-89
2023/04/06 08:42:56;;;;;;;;;;;;;;;;;;6267204;22;20372;-89
2023/04/06 08:45:22;;;;;;;;;;;;;;;;;;6267489;22;19919;-89
2023/04/06 08:47:48;;;;;;;;;;;;;;;;;;6292550;22;19918;-90
2023/04/06 08:50:14;;;;;;;;;;;;;;;;;;6269426;22;20247;-89
2023/04/06 08:52:40;;;;;;;;;;;;;;;;;;6268845;22;19930;-89
2023/04/06 08:55:07;;;;;;;;;;;;;;;;;;6268325;22;20071;-89
2023/04/06 09:03:49;;;;;;;;;;;;;;;;;;6296598;22;19940;-83
2023/04/06 09:16:11;;;;;;;;;;;;;;;;;;6180525;23;20049;-83
2023/04/06 09:25:02;;;;;;;;;;;;;;;;;;6189294;23;20384;-83
2023/04/06 09:27:40;;;;;;;;;;;;;;;;;;6177852;23;19919;-83
2023/04/06 09:30:16;;;;;;;;;;;;;;;;;;6139895;23;20648;-84
2023/04/06 09:33:23;;;;;;;;;;;;;;;;;;6169018;23;20030;-82
2023/04/06 09:35:59;;;;;;;;;;;;;;;;;;6135546;23;19928;-82
2023/04/06 09:38:30;;;;;;;;;;;;;;;;;;6088776;23;20203;-82
2023/04/06 09:41:16;;;;;;;;;;;;;;;;;;6116758;23;19939;-82
2023/04/06 09:43:54;;;;;;;;;;;;;;;;;;6117925;23;19967;-82
2023/04/06 09:46:37;;;;;;;;;;;;;;;;;;6136800;23;20432;-83
2023/04/06 09:52:25;;;;;;;;;;;;;;;;;;6097730;23;20375;-82
2023/04/06 09:54:54;;;;;;;;;;;;;;;;;;6111949;23;19921;-82
2023/04/06 10:03:27;;;;;;;;;;;;;;;;;;6054162;23;19925;-83
2023/04/06 10:06:12;;;;;;;;;;;;;;;;;;6036844;23;19921;-83
2023/04/06 10:08:58;;;;;;;;;;;;;;;;;;6074545;23;20447;-83
2023/04/06 10:11:52;;;;;;;;;;;;;;;;;;5999953;23;19983;-83
2023/04/06 10:17:55;;;;;;;;;;;;;;;;;;5971318;24;19918;-83
2023/04/06 10:20:35;;;;;;;;;;;;;;;;;;5948216;24;19945;-83
2023/04/06 10:23:01;;;;;;;;;;;;;;;;;;5925084;24;19922;-83
2023/04/06 10:26:01;;;;;;;;;;;;;;;;;;;;;
2023/04/06 10:31:38;;;;;;;;;;;;;;;;;;6235680;22;20011;-82
2023/04/06 10:34:14;;;;;;;;;;;;;;;;;;6244764;22;20197;-82
2023/04/06 10:36:51;;;;;;;;;;;;;;;;;;6265096;22;19954;-82
2023/04/06 10:42:14;;;;;;;;;;;;;;;;;;6239331;22;19922;-82
2023/04/06 10:44:55;;;;;;;;;;;;;;;;;;6237224;22;19919;-83
2023/04/06 10:47:33;;;;;;;;;;;;;;;;;;6213709;22;19915;-82
2023/04/06 10:50:36;;;;;;;;;;;;;;;;;;6214478;22;19915;-82
2023/04/06 10:53:06;;;;;;;;;;;;;;;;;;6238343;22;19923;-83
2023/04/06 10:55:35;;;;;;;;;;;;;;;;;;6237956;22;20251;-82
2023/04/06 10:58:17;;;;;;;;;;;;;;;;;;6241075;22;19919;-82
2023/04/06 11:01:00;;;;;;;;;;;;;;;;;;6211897;22;19923;-82
2023/04/06 11:04:00;;;;;;;;;;;;;;;;;;;;;
2023/04/06 11:06:41;;;;;;;;;;;;;;;;;;6150037;23;19987;-82
2023/04/06 11:09:25;;;;;;;;;;;;;;;;;;6175071;23;19933;-82
2023/04/06 11:14:39;;;;;;;;;;;;;;;;;;6147090;23;19918;-82
2023/04/06 11:17:31;;;;;;;;;;;;;;;;;;6180796;23;20393;-82
2023/04/06 11:20:25;;;;;;;;;;;;;;;;;;6159095;23;20261;-82
2023/04/06 11:23:31;;;;;;;;;;;;;;;;;;6117853;23;19952;-82
2023/04/06 11:26:05;;;;;;;;;;;;;;;;;;6131975;23;20277;-82
2023/04/06 11:28:49;;;;;;;;;;;;;;;;;;6267451;22;19926;-82
2023/04/06 11:31:42;;;;;;;;;;;;;;;;;;6206031;23;20322;-82
2023/04/06 11:34:38;;;;;;;;;;;;;;;;;;6155487;23;19918;-82
2023/04/06 11:37:13;;;;;;;;;;;;;;;;;;6144158;23;20278;-82
2023/04/06 11:39:50;;;;;;;;;;;;;;;;;;6094574;23;20231;-82
2023/04/06 11:42:35;;;;;;;;;;;;;;;;;;;;;
2023/04/06 11:45:15;;;;;;;;;;;;;;;;;;6116299;23;19956;-81
2023/04/06 11:48:04;;;;;;;;;;;;;;;;;;6098634;23;19920;-82
2023/04/06 11:50:34;;;;;;;;;;;;;;;;;;6097717;23;19920;-82
2023/04/06 11:53:18;;;;;;;;;;;;;;;;;;6038637;23;19921;-82
2023/04/06 12:01:37;;;;;;;;;;;;;;;;;;6274064;22;19919;-83
2023/04/06 12:04:03;;;;;;;;;;;;;;;;;;6244504;22;20376;-84
2023/04/06 12:06:29;;;;;;;;;;;;;;;;;;6272984;22;19964;-84
2023/04/06 12:08:55;;;;;;;;;;;;;;;;;;6244108;22;19918;-83
2023/04/06 12:11:21;;;;;;;;;;;;;;;;;;6245031;22;19922;-84
2023/04/06 12:13:48;;;;;;;;;;;;;;;;;;6270721;22;20243;-84
2023/04/06 12:16:14;;;;;;;;;;;;;;;;;;6271321;22;20255;-84
2023/04/06 12:18:40;;;;;;;;;;;;;;;;;;6272880;22;19946;-84
2023/04/06 12:21:06;;;;;;;;;;;;;;;;;;6269150;22;20338;-83
2023/04/06 12:23:32;;;;;;;;;;;;;;;;;;6270981;22;19969;-84
2023/04/06 12:25:58;;;;;;;;;;;;;;;;;;6245372;22;19950;-84
2023/04/06 12:28:26;;;;;;;;;;;;;;;;;;6273793;22;20325;-84
2023/04/06 12:30:52;;;;;;;;;;;;;;;;;;6244722;22;19922;-84
2023/04/06 12:33:18;;;;;;;;;;;;;;;;;;6273249;22;19923;-84
2023/04/06 12:35:44;;;;;;;;;;;;;;;;;;6301493;22;19919;-84
2023/04/06 12:38:11;;;;;;;;;;;;;;;;;;6271425;22;19915;-84
2023/04/06 12:40:37;;;;;;;;;;;;;;;;;;6271664;22;20298;-84
2023/04/06 12:43:03;;;;;;;;;;;;;;;;;;6270113;22;19915;-84
2023/04/06 12:45:29;;;;;;;;;;;;;;;;;;6247335;22;19925;-84
2023/04/06 12:47:55;;;;;;;;;;;;;;;;;;6273011;22;19919;-84
2023/04/06 12:50:21;;;;;;;;;;;;;;;;;;6273298;22;20375;-83
2023/04/06 12:52:47;;;;;;;;;;;;;;;;;;6297476;22;19922;-84
2023/04/06 12:55:13;;;;;;;;;;;;;;;;;;6273093;22;19915;-84
2023/04/06 12:57:40;;;;;;;;;;;;;;;;;;6272887;22;19914;-84
2023/04/06 13:00:06;;;;;;;;;;;;;;;;;;6244783;22;19919;-84
2023/04/06 13:02:32;;;;;;;;;;;;;;;;;;6266588;22;19924;-84
2023/04/06 13:04:58;;;;;;;;;;;;;;;;;;6239837;22;20244;-84
2023/04/06 13:07:24;;;;;;;;;;;;;;;;;;6268742;22;19916;-84
2023/04/06 13:09:50;;;;;;;;;;;;;;;;;;6265806;22;20041;-84
2023/04/06 13:12:16;;;;;;;;;;;;;;;;;;6239984;22;20332;-84
2023/04/06 13:14:42;;;;;;;;;;;;;;;;;;6264933;22;20364;-83
2023/04/06 13:17:08;;;;;;;;;;;;;;;;;;6266567;22;20351;-84
2023/04/06 13:19:34;;;;;;;;;;;;;;;;;;6242520;22;19970;-84
2023/04/06 13:22:00;;;;;;;;;;;;;;;;;;6265033;22;19922;-84
2023/04/06 13:24:26;;;;;;;;;;;;;;;;;;6267564;22;19922;-84
2023/04/06 13:26:52;;;;;;;;;;;;;;;;;;6234104;22;20398;-83
2023/04/06 13:29:18;;;;;;;;;;;;;;;;;;6261401;22;19919;-84
2023/04/06 13:31:44;;;;;;;;;;;;;;;;;;6237382;22;19923;-84
2023/04/06 13:34:10;;;;;;;;;;;;;;;;;;6256310;22;20356;-84
2023/04/06 13:36:36;;;;;;;;;;;;;;;;;;6233935;22;19925;-84
2023/04/06 13:39:03;;;;;;;;;;;;;;;;;;6253571;22;19928;-84
2023/04/06 13:41:29;;;;;;;;;;;;;;;;;;6232704;22;20033;-84
2023/04/06 13:43:55;;;;;;;;;;;;;;;;;;6253551;22;19919;-84
2023/04/06 13:46:22;;;;;;;;;;;;;;;;;;6234060;22;19919;-84
2023/04/06 13:48:48;;;;;;;;;;;;;;;;;;6228615;22;19995;-84
2023/04/06 13:51:14;;;;;;;;;;;;;;;;;;6232982;22;19926;-84
2023/04/06 13:53:40;;;;;;;;;;;;;;;;;;6255999;22;19923;-84
2023/04/06 13:56:06;;;;;;;;;;;;;;;;;;6255253;22;20406;-84
2023/04/06 13:58:32;;;;;;;;;;;;;;;;;;6258048;22;19919;-84
2023/04/06 14:00:58;;;;;;;;;;;;;;;;;;6256009;22;19915;-84
2023/04/06 14:03:24;;;;;;;;;;;;;;;;;;6260158;22;19929;-84
2023/04/06 14:05:51;;;;;;;;;;;;;;;;;;6255626;22;19919;-84
2023/04/06 14:08:17;;;;;;;;;;;;;;;;;;6262027;22;19953;-84
2023/04/06 14:10:43;;;;;;;;;;;;;;;;;;6236359;22;19919;-84
2023/04/06 14:13:09;;;;;;;;;;;;;;;;;;6233385;22;19927;-85
2023/04/06 14:15:35;;;;;;;;;;;;;;;;;;6231747;22;19972;-84
2023/04/06 14:18:01;;;;;;;;;;;;;;;;;;6254757;22;20347;-84
2023/04/06 14:20:27;;;;;;;;;;;;;;;;;;6258772;22;19916;-84
2023/04/06 14:22:54;;;;;;;;;;;;;;;;;;6234558;22;19969;-83
2023/04/06 14:25:20;;;;;;;;;;;;;;;;;;6237503;22;20692;-83
2023/04/06 14:27:49;;;;;;;;;;;;;;;;;;6237030;22;19955;-83
2023/04/06 14:30:15;;;;;;;;;;;;;;;;;;6237749;22;19922;-83
2023/04/06 14:32:41;;;;;;;;;;;;;;;;;;6236999;22;19927;-83
2023/04/06 14:35:07;;;;;;;;;;;;;;;;;;6234594;22;20403;-83
2023/04/06 14:37:33;;;;;;;;;;;;;;;;;;6236994;22;20132;-84
2023/04/06 14:39:59;;;;;;;;;;;;;;;;;;6235202;22;19961;-83
2023/04/06 14:42:25;;;;;;;;;;;;;;;;;;6236954;22;19927;-83
2023/04/06 14:44:54;;;;;;;;;;;;;;;;;;6258351;22;19973;-84
2023/04/06 14:47:21;;;;;;;;;;;;;;;;;;6236047;22;19915;-85
2023/04/06 14:49:47;;;;;;;;;;;;;;;;;;6260835;22;19919;-85
2023/04/06 14:52:13;;;;;;;;;;;;;;;;;;6234588;22;19930;-84
2023/04/06 14:54:41;;;;;;;;;;;;;;;;;;6262239;22;20252;-84
2023/04/06 14:57:07;;;;;;;;;;;;;;;;;;6261392;22;19990;-84
2023/04/06 14:59:52;;;;;;;;;;;;;;;;;;6258458;22;19958;-84
2023/04/06 15:05:32;;;;;;;;;;;;;;;;;;6237211;22;20336;-84
2023/04/06 15:10:58;;;;;;;;;;;;;;;;;;6227547;22;19990;-84
2023/04/06 15:13:55;;;;;;;;;;;;;;;;;;;;;
2023/04/06 15:16:32;;;;;;;;;;;;;;;;;;;;;
2023/04/06 15:19:18;;;;;;;;;;;;;;;;;;6228750;23;20329;-84
2023/04/06 15:21:53;;;;;;;;;;;;;;;;;;6168506;23;19916;-84
2023/04/06 15:24:31;;;;;;;;;;;;;;;;;;6169854;23;20385;-84
2023/04/06 15:27:02;;;;;;;;;;;;;;;;;;6144090;23;19927;-84
2023/04/06 15:30:02;;;;;;;;;;;;;;;;;;;;;
2023/04/06 15:35:59;;;;;;;;;;;;;;;;;;6177660;23;19916;-85
2023/04/06 15:38:31;;;;;;;;;;;;;;;;;;6146415;23;20349;-84
2023/04/06 15:41:10;;;;;;;;;;;;;;;;;;6142860;23;20399;-84
2023/04/06 15:46:51;;;;;;;;;;;;;;;;;;6168603;23;19955;-84
2023/04/06 15:49:41;;;;;;;;;;;;;;;;;;6113848;23;20235;-85
2023/04/06 15:52:57;;;;;;;;;;;;;;;;;;6030171;23;19925;-84
2023/04/06 15:58:12;;;;;;;;;;;;;;;;;;6026672;23;20004;-84
2023/04/06 16:19:20;;;;;;;;;;;;;;;;;;6125284;23;20307;-84
2023/04/06 16:25:13;;;;;;;;;;;;;;;;;;6230000;23;20404;-85
2023/04/06 16:28:22;;;;;;;;;;;;;;;;;;6191848;23;19915;-84
2023/04/06 16:31:04;;;;;;;;;;;;;;;;;;6228376;23;19962;-84
2023/04/06 16:36:40;;;;;;;;;;;;;;;;;;6195255;23;19924;-84
2023/04/06 16:39:36;;;;;;;;;;;;;;;;;;6214841;23;19920;-84
2023/04/06 16:42:26;;;;;;;;;;;;;;;;;;6162906;23;20360;-84
2023/04/06 16:44:55;;;;;;;;;;;;;;;;;;6201881;23;20406;-84
2023/04/06 16:47:49;;;;;;;;;;;;;;;;;;;;;
2023/04/06 16:53:13;;;;;;;;;;;;;;;;;;6080559;23;20314;-84
2023/04/06 17:05:03;;;;;;;;;;;;;;;;;;6025575;23;19921;-84
2023/04/06 17:07:54;;;;;;;;;;;;;;;;;;6130762;23;20079;-84
2023/04/06 17:13:53;;;;;;;;;;;;;;;;;;;;;
2023/04/06 17:16:54;;;;;;;;;;;;;;;;;;;;;
2023/04/06 17:31:12;;;;;;;;;;;;;;;;;;6257425;22;20028;-84
2023/04/06 17:33:51;;;;;;;;;;;;;;;;;;;;;
2023/04/06 17:36:18;;;;;;;;;;;;;;;;;;6227175;23;19916;-84
2023/04/06 17:38:50;;;;;;;;;;;;;;;;;;6203319;23;19920;-84
2023/04/06 17:44:27;;;;;;;;;;;;;;;;;;6135853;23;19921;-84
2023/04/06 17:46:58;;;;;;;;;;;;;;;;;;6107139;23;20334;-84
2023/04/06 17:55:42;;;;;;;;;;;;;;;;;;6103332;23;19920;-84
2023/04/06 17:58:34;;;;;;;;;;;;;;;;;;6114120;23;19948;-84
2023/04/06 18:01:10;;;;;;;;;;;;;;;;;;6110584;23;20445;-84
2023/04/06 18:06:55;;;;;;;;;;;;;;;;;;6139993;23;20257;-84
2023/04/06 18:12:50;;;;;;;;;;;;;;;;;;6117217;23;19932;-85
2023/04/06 18:15:21;;;;;;;;;;;;;;;;;;6142239;23;19922;-85
2023/04/06 18:18:15;;;;;;;;;;;;;;;;;;6150436;23;20432;-85
2023/04/06 18:20:50;;;;;;;;;;;;;;;;;;6174326;23;19919;-85
2023/04/06 18:26:39;;;;;;;;;;;;;;;;;;6173537;23;19920;-85
2023/04/06 18:29:13;;;;;;;;;;;;;;;;;;6176670;22;20329;-86
2023/04/06 18:31:43;;;;;;;;;;;;;;;;;;6237144;22;19927;-85
2023/04/06 18:34:34;;;;;;;;;;;;;;;;;;6239814;22;20082;-86
2023/04/06 18:40:19;;;;;;;;;;;;;;;;;;6260644;22;19926;-86
2023/04/06 18:45:55;;;;;;;;;;;;;;;;;;6196959;23;19919;-87
2023/04/06 18:52:09;;;;;;;;;;;;;;;;;;;;;
2023/04/06 18:55:23;;;;;;;;;;;;;;;;;;6154230;23;19919;-86
2023/04/06 18:58:01;;;;;;;;;;;;;;;;;;;;;
2023/04/06 19:09:44;;;;;;;;;;;;;;;;;;6141384;23;20414;-85
2023/04/06 19:12:18;;;;;;;;;;;;;;;;;;6117873;23;20366;-85
2023/04/06 19:15:00;;;;;;;;;;;;;;;;;;6149268;23;20315;-86
2023/04/06 19:18:06;;;;;;;;;;;;;;;;;;6224188;22;19922;-85
2023/04/06 19:20:41;;;;;;;;;;;;;;;;;;6259726;22;19920;-85
2023/04/06 19:29:37;;;;;;;;;;;;;;;;;;6198412;23;19919;-86
2023/04/06 19:32:38;;;;;;;;;;;;;;;;;;;;;
2023/04/06 19:35:31;;;;;;;;;;;;;;;;;;;;;
2023/04/06 19:38:22;;;;;;;;;;;;;;;;;;6090558;23;20024;-85
2023/04/06 19:44:11;;;;;;;;;;;;;;;;;;6158449;23;20354;-86
2023/04/06 19:47:10;;;;;;;;;;;;;;;;;;6069963;23;19922;-85
2023/04/06 19:50:00;;;;;;;;;;;;;;;;;;6174280;23;20257;-85
2023/04/06 19:52:36;;;;;;;;;;;;;;;;;;6201267;23;20003;-85
2023/04/06 19:55:39;;;;;;;;;;;;;;;;;;;;;
2023/04/06 19:58:08;;;;;;;;;;;;;;;;;;6126755;23;19962;-85
2023/04/06 20:04:14;;;;;;;;;;;;;;;;;;6255447;22;20259;-85
2023/04/06 20:09:50;;;;;;;;;;;;;;;;;;6254578;22;19946;-85
2023/04/06 20:18:44;;;;;;;;;;;;;;;;;;6187960;22;19987;-85
2023/04/06 20:48:20;;;;;;;;;;;;;;;;;;6092054;23;20278;-86
2023/04/06 21:03:13;;;;;;;;;;;;;;;;;;6050500;23;20331;-86
2023/04/06 21:06:04;;;;;;;;;;;;;;;;;;6046187;23;19921;-86
2023/04/06 21:14:33;;;;;;;;;;;;;;;;;;6092629;23;20016;-87
2023/04/06 21:17:18;;;;;;;;;;;;;;;;;;6089565;23;19932;-85
2023/04/06 21:20:16;;;;;;;;;;;;;;;;;;6063016;23;20280;-86
2023/04/06 21:28:42;;;;;;;;;;;;;;;;;;6142101;23;20328;-86
2023/04/06 21:31:44;;;;;;;;;;;;;;;;;;6102835;23;20015;-86
2023/04/06 21:34:30;;;;;;;;;;;;;;;;;;6142050;23;19917;-86
2023/04/06 21:55:30;;;;;;;;;;;;;;;;;;6269847;22;19918;-87
2023/04/06 21:58:21;;;;;;;;;;;;;;;;;;6236961;22;20351;-86
2023/04/06 22:01:17;;;;;;;;;;;;;;;;;;;;;
2023/04/06 22:10:30;;;;;;;;;;;;;;;;;;;;;
2023/04/06 22:22:05;;;;;;;;;;;;;;;;;;;;;
2023/04/06 22:24:57;;;;;;;;;;;;;;;;;;6199490;23;20257;-86
2023/04/06 22:27:31;;;;;;;;;;;;;;;;;;6151828;23;20456;-86
2023/04/06 22:30:21;;;;;;;;;;;;;;;;;;6169905;23;20404;-86
2023/04/06 22:32:53;;;;;;;;;;;;;;;;;;6173588;23;19920;-86
2023/04/06 22:35:29;;;;;;;;;;;;;;;;;;6172540;23;20362;-86
2023/04/06 22:38:25;;;;;;;;;;;;;;;;;;6109857;23;19924;-86
2023/04/06 22:41:18;;;;;;;;;;;;;;;;;;6120242;23;20386;-86
2023/04/06 22:47:16;;;;;;;;;;;;;;;;;;;;;
2023/04/06 22:55:20;;;;;;;;;;;;;;;;;;5992838;23;20005;-86
2023/04/06 22:58:12;;;;;;;;;;;;;;;;;;5992008;23;19926;-86